CheckWX is a tool to help pilots better visualize weather data.  It is not intended as a substitute for an official pre-flight weather briefing.

20:32:53 UTC

8A0 METAR
Albertville Regional-Thomas J Brumlik Field Airport
Albertville, Alabama, USA
Current

18 mins ago

K8A0 182015Z AUTO 00000KT 10SM CLR 07/00 A3026 RMK AO2
Observed
Feb-18 @ 20:15 UTC
Visibility
10 SM
Flight Rules
VFR
Cloud Levels
  • Clear skies
Temperature
C / 45°F
Dewpoint
C / 32°F
Humidity
61%
Altimeter
30.26" Hg
Pressure
1024.72 hPa
Previous

38 mins ago

K8A0 181955Z AUTO 35006KT 10SM CLR 07/00 A3026 RMK AO2
Observed
Feb-18 @ 19:55 UTC
Wind
  • 350° at 6 KTS
Visibility
10 SM
Flight Rules
VFR
Cloud Levels
  • Clear skies
Temperature
C / 45°F
Dewpoint
C / 32°F
Humidity
61%
Altimeter
30.26" Hg
Pressure
1024.72 hPa
Previous

58 mins ago

K8A0 181935Z AUTO 35007KT 10SM CLR 07/01 A3024 RMK AO2
Observed
Feb-18 @ 19:35 UTC
Wind
  • 350° at 7 KTS
Visibility
10 SM
Flight Rules
VFR
Cloud Levels
  • Clear skies
Temperature
C / 45°F
Dewpoint
C / 34°F
Humidity
66%
Altimeter
30.24" Hg
Pressure
1024.02 hPa